Terminal Aerodrome Forecast
Issued by NWS

Home | Current Version | Previous Version | Text Only | Print | Product List | Glossary On
Versions: 1 2 3 4 5 6 7 8 9 10 11 12
000
FTUS46 KPDT 150500
TAFALW
TAF
KALW 150520Z 1506/1606 14005KT P6SM SKC
     FM151400 VRB03KT P6SM SKC
     FM152100 36006KT P6SM FEW100 SCT250
     FM160300 14005KT P6SM SCT100 SCT250=

USA.gov is the U.S. government's official web portal to all federal, state and local government web resources and services.